createdAt,value
2022-08-12T00:02:03.693Z,4.32
2022-08-12T00:04:51.337Z,4.97
2022-08-12T00:07:36.677Z,4.15
2022-08-12T00:10:23.121Z,4.18
2022-08-12T00:13:08.234Z,4.63
2022-08-12T00:15:54.281Z,4.47
2022-08-12T00:18:39.455Z,4.40
2022-08-12T00:21:24.929Z,4.28
2022-08-12T00:24:12.839Z,4.70
2022-08-12T00:26:59.947Z,4.80
2022-08-12T00:29:47.966Z,4.15
2022-08-12T00:32:35.591Z,4.53
2022-08-12T00:35:27.403Z,3.83
2022-08-12T00:38:22.500Z,4.40
2022-08-12T00:41:07.973Z,4.10
2022-08-12T00:43:36.166Z,4.20
2022-08-12T00:46:21.526Z,4.13
2022-08-12T00:48:49.293Z,4.40
2022-08-12T00:51:16.462Z,4.50
2022-08-12T00:53:43.012Z,4.15
2022-08-12T00:56:10.589Z,4.50
2022-08-12T00:58:39.418Z,3.97
2022-08-12T01:01:08.197Z,4.88
2022-08-12T01:03:57.617Z,4.38
2022-08-12T01:06:45.702Z,3.90
2022-08-12T01:09:37.198Z,4.35
2022-08-12T01:12:05.699Z,5.15
2022-08-12T01:14:32.683Z,4.85
2022-08-12T01:16:59.814Z,4.43
2022-08-12T01:19:26.427Z,4.70
2022-08-12T01:22:31.098Z,4.63
2022-08-12T01:25:17.408Z,4.40
2022-08-12T01:27:44.551Z,4.50
2022-08-12T01:30:13.199Z,4.72
2022-08-12T01:32:41.150Z,4.70
2022-08-12T01:35:16.039Z,4.30
2022-08-12T01:37:52.106Z,4.70
2022-08-12T01:40:33.684Z,4.88
2022-08-12T01:43:16.581Z,4.50
2022-08-12T01:46:07.818Z,4.60
2022-08-12T01:49:02.405Z,5.13
2022-08-12T01:52:21.473Z,4.88
2022-08-12T01:54:40.041Z,4.50
2022-08-12T01:57:58.329Z,4.75
2022-08-12T02:00:35.907Z,4.43
2022-08-12T02:03:24.635Z,5.55
2022-08-12T02:06:17.814Z,5.32
2022-08-12T02:09:20.113Z,6.32
2022-08-12T02:11:58.785Z,5.93
2022-08-12T02:14:56.804Z,6.07
2022-08-12T02:18:04.819Z,6.05
2022-08-12T02:20:52.092Z,5.13
2022-08-12T02:23:23.228Z,5.93
2022-08-12T02:25:50.951Z,5.45
2022-08-12T02:28:17.519Z,5.68
2022-08-12T02:30:44.184Z,5.35
2022-08-12T02:33:11.444Z,4.88
2022-08-12T02:35:39.389Z,5.53
2022-08-12T02:38:10.545Z,5.30
2022-08-12T02:40:40.485Z,6.05
2022-08-12T02:43:21.394Z,5.50
2022-08-12T02:45:53.776Z,4.53
2022-08-12T02:48:27.104Z,4.88
2022-08-12T02:50:57.308Z,5.13
2022-08-12T02:53:24.538Z,5.07
2022-08-12T02:55:51.123Z,4.90
2022-08-12T02:58:19.782Z,5.70
2022-08-12T03:00:46.712Z,5.55
2022-08-12T03:03:15.244Z,5.15
2022-08-12T03:05:49.250Z,5.32
2022-08-12T03:08:24.817Z,5.30
2022-08-12T03:11:17.799Z,5.60
2022-08-12T03:13:51.370Z,5.25
2022-08-12T03:16:20.710Z,6.10
2022-08-12T03:18:48.827Z,5.63
2022-08-12T03:21:52.780Z,5.28
2022-08-12T03:24:08.254Z,6.47
2022-08-12T03:26:35.628Z,5.93
2022-08-12T03:29:06.817Z,5.93
2022-08-12T03:34:03.602Z,5.68
2022-08-12T03:36:35.089Z,6.20
2022-08-12T03:39:13.979Z,6.18
2022-08-12T03:41:48.124Z,6.53
2022-08-12T03:44:53.876Z,7.18
2022-08-12T03:47:47.877Z,6.88
2022-08-12T03:50:32.779Z,6.90
2022-08-12T03:53:17.873Z,7.30
2022-08-12T03:56:02.738Z,7.03
2022-08-12T03:58:48.846Z,7.22
2022-08-12T04:01:15.545Z,6.65
2022-08-12T04:03:54.775Z,6.75
2022-08-12T04:06:34.359Z,7.38
2022-08-12T04:09:05.119Z,8.25
2022-08-12T04:11:59.988Z,7.00
2022-08-12T04:14:27.940Z,8.48
2022-08-12T04:16:57.061Z,7.07
2022-08-12T04:19:26.020Z,7.90
2022-08-12T04:22:02.043Z,7.60
2022-08-12T04:24:36.709Z,6.85
2022-08-12T04:27:08.730Z,7.63
2022-08-12T04:30:29.705Z,7.35
2022-08-12T04:32:27.335Z,6.95
2022-08-12T04:34:54.003Z,6.85
2022-08-12T04:37:20.640Z,7.07
2022-08-12T04:39:47.854Z,8.10
2022-08-12T04:42:14.472Z,7.10
2022-08-12T04:44:42.079Z,7.95
2022-08-12T04:47:14.237Z,7.20
2022-08-12T04:49:43.779Z,7.60
2022-08-12T04:52:10.885Z,7.95
2022-08-12T04:54:38.191Z,7.40
2022-08-12T04:57:05.997Z,7.38
2022-08-12T04:59:47.562Z,7.05
2022-08-12T05:02:21.008Z,7.35
2022-08-12T05:04:55.654Z,7.60
2022-08-12T05:07:24.101Z,6.95
2022-08-12T05:09:59.804Z,7.28
2022-08-12T05:12:40.059Z,6.95
2022-08-12T05:15:19.164Z,7.50
2022-08-12T05:17:47.887Z,7.22
2022-08-12T05:20:15.741Z,6.63
2022-08-12T05:22:45.226Z,6.90
2022-08-12T05:25:12.970Z,7.97
2022-08-12T05:27:40.019Z,6.97
2022-08-12T05:30:25.719Z,6.38
2022-08-12T05:32:53.758Z,6.47
2022-08-12T05:35:22.429Z,6.28
2022-08-12T05:38:10.024Z,5.80
2022-08-12T05:40:36.682Z,6.72
2022-08-12T05:43:03.305Z,6.22
2022-08-12T05:45:29.855Z,5.70
2022-08-12T05:47:56.426Z,5.97
2022-08-12T05:50:23.208Z,6.20
2022-08-12T05:52:49.741Z,5.82
2022-08-12T05:55:20.346Z,5.80
2022-08-12T05:57:53.552Z,5.80
2022-08-12T06:00:21.726Z,5.63
2022-08-12T06:02:48.326Z,5.53
2022-08-12T06:05:16.069Z,5.18
2022-08-12T06:08:01.775Z,5.20
2022-08-12T06:10:32.010Z,4.65
2022-08-12T06:13:07.030Z,4.95
2022-08-12T06:15:37.816Z,5.13
2022-08-12T06:18:13.560Z,5.22
2022-08-12T06:20:43.309Z,5.20
2022-08-12T06:23:10.796Z,4.70
2022-08-12T06:25:37.528Z,4.80
2022-08-12T06:28:08.528Z,4.50
2022-08-12T06:30:39.342Z,4.60
2022-08-12T06:35:48.396Z,4.43
2022-08-12T06:38:18.488Z,5.00
2022-08-12T06:41:04.977Z,5.05
2022-08-12T06:44:06.921Z,5.07
2022-08-12T06:46:19.413Z,4.55
2022-08-12T06:48:45.930Z,4.40
2022-08-12T06:51:12.833Z,4.82
2022-08-12T06:53:39.517Z,4.38
2022-08-12T06:56:10.596Z,4.10
2022-08-12T06:58:39.636Z,4.20
2022-08-12T07:01:07.373Z,4.25
2022-08-12T07:03:34.009Z,3.85
2022-08-12T07:06:03.807Z,4.38
2022-08-12T07:08:35.248Z,3.75
2022-08-12T07:11:07.266Z,4.70
2022-08-12T07:14:11.899Z,4.32
2022-08-12T07:16:26.796Z,3.65
2022-08-12T07:18:55.192Z,3.92
2022-08-12T07:21:23.240Z,4.10
2022-08-12T07:24:09.733Z,4.32
2022-08-12T07:26:39.128Z,3.80
2022-08-12T07:29:11.930Z,3.75
2022-08-12T07:31:38.575Z,4.32
2022-08-12T07:34:05.906Z,4.03
2022-08-12T07:36:35.337Z,3.78
2022-08-12T07:39:03.600Z,3.75
2022-08-12T07:41:31.915Z,3.40
2022-08-12T07:44:04.509Z,3.50
2022-08-12T07:46:36.530Z,3.60
2022-08-12T07:49:11.293Z,3.20
2022-08-12T07:51:38.618Z,3.40
2022-08-12T07:54:09.581Z,3.40
2022-08-12T07:56:38.291Z,3.40
2022-08-12T07:59:05.508Z,2.70
2022-08-12T08:01:32.922Z,2.92
2022-08-12T08:04:19.513Z,2.80
2022-08-12T08:06:47.271Z,2.80
2022-08-12T08:09:17.014Z,2.65
2022-08-12T08:12:01.849Z,2.45
2022-08-12T08:14:29.051Z,2.92
2022-08-12T08:16:57.048Z,2.38
2022-08-12T08:19:23.947Z,2.47
2022-08-12T08:21:51.422Z,2.30
2022-08-12T08:24:18.269Z,2.83
2022-08-12T08:26:49.902Z,2.33
2022-08-12T08:29:17.484Z,2.40
2022-08-12T08:31:46.049Z,2.40
2022-08-12T08:34:40.265Z,2.30
2022-08-12T08:36:59.932Z,2.47
2022-08-12T08:39:31.750Z,2.60
2022-08-12T08:42:20.227Z,2.80
2022-08-12T08:44:50.342Z,2.78
2022-08-12T08:47:21.999Z,2.78
2022-08-12T08:49:48.956Z,2.60
2022-08-12T08:52:40.202Z,2.45
2022-08-12T08:55:02.263Z,2.50
2022-08-12T08:57:44.199Z,2.65
2022-08-12T09:00:16.377Z,2.72
2022-08-12T09:02:49.386Z,2.30
2022-08-12T09:05:26.075Z,2.67
2022-08-12T09:08:12.245Z,2.58
2022-08-12T09:10:40.734Z,1.88
2022-08-12T09:14:12.267Z,2.67
2022-08-12T09:16:23.212Z,2.22
2022-08-12T09:18:52.292Z,2.00
2022-08-12T09:21:19.524Z,1.92
2022-08-12T09:23:58.792Z,2.08
2022-08-12T09:26:33.922Z,2.00
2022-08-12T09:29:15.215Z,1.73
2022-08-12T09:32:03.177Z,2.15
2022-08-12T09:34:33.282Z,2.47
2022-08-12T09:37:02.468Z,2.22
2022-08-12T09:40:01.891Z,1.80
2022-08-12T09:42:45.735Z,2.47
2022-08-12T09:46:12.045Z,2.00
2022-08-12T09:48:20.214Z,2.08
2022-08-12T09:50:51.623Z,2.08
2022-08-12T09:53:29.210Z,1.90
2022-08-12T09:56:41.098Z,2.20
2022-08-12T09:59:00.271Z,2.10
2022-08-12T10:01:34.483Z,2.03
2022-08-12T10:04:19.674Z,2.00
2022-08-12T10:06:54.441Z,2.03
2022-08-12T10:09:28.408Z,2.20
2022-08-12T10:12:31.335Z,1.95
2022-08-12T10:14:59.781Z,1.90
2022-08-12T10:17:26.369Z,2.08
2022-08-12T10:19:53.327Z,2.10
2022-08-12T10:22:38.852Z,2.22
2022-08-12T10:26:34.685Z,1.85
2022-08-12T10:28:35.995Z,2.20
2022-08-12T10:31:05.513Z,1.90
2022-08-12T10:33:33.451Z,2.13
2022-08-12T10:36:01.877Z,2.00
2022-08-12T10:38:33.694Z,2.28
2022-08-12T10:41:22.517Z,2.00
2022-08-12T10:44:12.429Z,1.98
2022-08-12T10:46:45.841Z,2.40
2022-08-12T10:50:03.268Z,2.13
2022-08-12T10:52:34.449Z,2.25
2022-08-12T10:54:55.410Z,2.15
2022-08-12T10:58:12.452Z,2.40
2022-08-12T11:00:34.305Z,2.42
2022-08-12T11:04:26.565Z,1.83
2022-08-12T11:07:03.728Z,2.10
2022-08-12T11:08:42.949Z,2.15
2022-08-12T11:12:07.751Z,1.87
2022-08-12T11:14:05.057Z,1.80
2022-08-12T11:16:32.629Z,2.08
2022-08-12T11:18:59.198Z,2.05
2022-08-12T11:21:56.930Z,2.13
2022-08-12T11:24:30.401Z,1.98
2022-08-12T11:27:00.717Z,2.10
2022-08-12T11:30:01.724Z,2.13
2022-08-12T11:32:15.516Z,2.10
2022-08-12T11:34:53.313Z,2.00
2022-08-12T11:37:24.867Z,2.00
2022-08-12T11:42:39.702Z,2.00
2022-08-12T11:45:13.188Z,2.40
2022-08-12T11:47:43.339Z,2.03
2022-08-12T11:50:11.710Z,2.08
2022-08-12T11:52:55.353Z,2.15
2022-08-12T11:55:24.859Z,2.05
2022-08-12T11:58:46.118Z,2.38
2022-08-12T12:03:26.467Z,1.95
2022-08-12T12:06:14.217Z,1.80
2022-08-12T12:08:49.805Z,2.33
2022-08-12T12:11:18.016Z,2.10
2022-08-12T12:14:07.252Z,2.25
2022-08-12T12:16:31.243Z,2.05
2022-08-12T12:18:59.837Z,1.92
2022-08-12T12:21:47.153Z,2.30
2022-08-12T12:24:12.968Z,2.17
2022-08-12T12:26:39.533Z,1.98
2022-08-12T12:29:09.908Z,2.10
2022-08-12T12:32:10.126Z,2.10
2022-08-12T12:34:38.638Z,2.22
2022-08-12T12:37:07.574Z,2.38
2022-08-12T12:39:55.465Z,2.05
2022-08-12T12:42:43.120Z,2.17
2022-08-12T12:45:19.727Z,2.20
2022-08-12T12:47:58.177Z,2.53
2022-08-12T12:50:35.560Z,1.98
2022-08-12T12:53:09.300Z,2.30
2022-08-12T12:55:55.812Z,2.10
2022-08-12T12:58:22.364Z,1.98
2022-08-12T13:00:51.191Z,2.20
2022-08-12T13:03:19.079Z,2.17
2022-08-12T13:05:45.967Z,1.95
2022-08-12T13:08:28.097Z,1.95
2022-08-12T13:10:56.512Z,2.15
2022-08-12T13:14:07.026Z,1.92
2022-08-12T13:16:14.186Z,2.22
2022-08-12T13:18:45.070Z,2.13
2022-08-12T13:21:36.506Z,2.10
2022-08-12T13:24:09.698Z,1.95
2022-08-12T13:26:40.013Z,2.03
2022-08-12T13:29:11.564Z,1.95
2022-08-12T13:31:46.213Z,2.00
2022-08-12T13:34:33.281Z,1.88
2022-08-12T13:37:09.646Z,1.83
2022-08-12T13:39:37.821Z,2.25
2022-08-12T13:42:13.873Z,1.88
2022-08-12T13:44:41.353Z,2.20
2022-08-12T13:47:12.389Z,2.10
2022-08-12T13:49:55.562Z,2.10
2022-08-12T13:52:23.453Z,2.20
2022-08-12T13:54:56.400Z,2.05
2022-08-12T13:57:25.486Z,2.10
2022-08-12T13:59:55.342Z,2.33
2022-08-12T14:02:22.641Z,2.20
2022-08-12T14:04:56.591Z,1.90
2022-08-12T14:07:26.139Z,2.20
2022-08-12T14:10:29.246Z,2.40
2022-08-12T14:12:56.056Z,1.85
2022-08-12T14:15:31.209Z,2.08
2022-08-12T14:18:27.802Z,1.75
2022-08-12T14:21:05.453Z,1.70
2022-08-12T14:24:05.206Z,2.13
2022-08-12T14:26:25.045Z,2.13
2022-08-12T14:28:57.619Z,2.13
2022-08-12T14:31:31.942Z,2.17
2022-08-12T14:33:59.732Z,2.20
2022-08-12T14:36:26.584Z,1.92
2022-08-12T14:38:55.860Z,1.73
2022-08-12T14:41:36.995Z,1.98
2022-08-12T14:44:57.761Z,2.13
2022-08-12T14:46:59.464Z,1.80
2022-08-12T14:50:33.968Z,2.10
2022-08-12T14:53:45.821Z,1.80
2022-08-12T14:58:09.529Z,1.90
2022-08-12T15:00:56.053Z,1.93
2022-08-12T15:03:52.178Z,1.95
2022-08-12T15:06:43.963Z,1.70
2022-08-12T15:09:02.057Z,1.70
2022-08-12T15:11:54.654Z,2.00
2022-08-12T15:14:15.200Z,1.77
2022-08-12T15:16:45.568Z,2.00
2022-08-12T15:19:25.848Z,2.10
2022-08-12T15:22:39.316Z,1.90
2022-08-12T15:24:45.456Z,1.70
2022-08-12T15:27:12.227Z,2.30
2022-08-12T15:29:38.854Z,2.00
2022-08-12T15:32:15.720Z,1.77
2022-08-12T15:34:42.703Z,1.70
2022-08-12T15:37:09.409Z,2.00
2022-08-12T15:39:36.046Z,2.10
2022-08-12T15:42:02.728Z,2.03
2022-08-12T15:44:38.722Z,1.90
2022-08-12T15:47:09.935Z,2.17
2022-08-12T15:49:54.292Z,2.00
2022-08-12T15:52:27.397Z,2.00
2022-08-12T15:54:58.865Z,1.90
2022-08-12T16:00:07.638Z,1.80
2022-08-12T16:02:50.471Z,2.03
2022-08-12T16:06:11.750Z,2.03
2022-08-12T16:08:17.059Z,2.10
2022-08-12T16:10:45.212Z,2.05
2022-08-12T16:13:13.701Z,2.30
2022-08-12T16:15:42.469Z,2.00
2022-08-12T16:18:27.963Z,2.55
2022-08-12T16:20:54.647Z,2.00
2022-08-12T16:23:36.372Z,2.50
2022-08-12T16:26:14.664Z,2.00
2022-08-12T16:28:47.341Z,1.83
2022-08-12T16:31:22.735Z,1.95
2022-08-12T16:34:00.126Z,1.70
2022-08-12T16:36:29.269Z,2.00
2022-08-12T16:38:55.916Z,1.88
2022-08-12T16:41:24.171Z,2.00
2022-08-12T16:43:53.317Z,2.03
2022-08-12T16:46:31.768Z,1.70
2022-08-12T16:49:09.325Z,2.03
2022-08-12T16:51:46.130Z,2.00
2022-08-12T16:54:36.209Z,1.88
2022-08-12T16:57:05.758Z,1.70
2022-08-12T16:59:54.012Z,2.10
2022-08-12T17:02:33.409Z,1.70
2022-08-12T17:05:04.074Z,2.10
2022-08-12T17:07:36.193Z,1.70
2022-08-12T17:10:10.616Z,2.22
2022-08-12T17:12:39.200Z,1.75
2022-08-12T17:15:50.707Z,1.95
2022-08-12T17:18:38.876Z,1.80
2022-08-12T17:20:46.871Z,2.10
2022-08-12T17:23:19.354Z,1.73
2022-08-12T17:25:51.944Z,1.92
2022-08-12T17:28:21.222Z,2.35
2022-08-12T17:30:59.459Z,1.60
2022-08-12T17:33:27.748Z,1.70
2022-08-12T17:36:01.242Z,2.00
2022-08-12T17:38:29.372Z,1.90
2022-08-12T17:40:57.406Z,1.80
2022-08-12T17:43:56.723Z,1.90
2022-08-12T17:46:12.458Z,2.00
2022-08-12T17:48:54.998Z,1.70
2022-08-12T17:51:24.416Z,1.70
2022-08-12T17:54:11.499Z,1.80
2022-08-12T17:56:39.366Z,1.83
2022-08-12T17:59:09.632Z,2.10
2022-08-12T18:01:44.157Z,1.80
2022-08-12T18:04:21.864Z,1.70
2022-08-12T18:06:51.811Z,1.90
2022-08-12T18:09:19.349Z,1.90
2022-08-12T18:12:07.860Z,1.77
2022-08-12T18:14:37.040Z,1.75
2022-08-12T18:17:08.152Z,1.70
2022-08-12T18:20:06.320Z,2.00
2022-08-12T18:22:30.566Z,1.50
2022-08-12T18:26:13.063Z,1.70
2022-08-12T18:28:16.437Z,1.70
2022-08-12T18:30:52.964Z,2.17
2022-08-12T18:33:26.708Z,1.60
2022-08-12T18:35:55.514Z,1.80
2022-08-12T18:38:24.769Z,2.35
2022-08-12T18:41:21.537Z,2.25
2022-08-12T18:43:57.661Z,1.60
2022-08-12T18:46:34.909Z,2.13
2022-08-12T18:49:16.875Z,1.58
2022-08-12T18:52:03.895Z,1.85
2022-08-12T18:54:34.784Z,1.90
2022-08-12T18:57:06.986Z,1.52
2022-08-12T19:00:02.057Z,1.70
2022-08-12T19:02:33.885Z,1.67
2022-08-12T19:05:10.018Z,1.63
2022-08-12T19:08:00.062Z,1.92
2022-08-12T19:10:29.164Z,1.60
2022-08-12T19:13:21.056Z,1.65
2022-08-12T19:15:50.137Z,1.60
2022-08-12T19:18:18.151Z,2.00
2022-08-12T19:20:50.419Z,2.10
2022-08-12T19:23:21.229Z,1.80
2022-08-12T19:25:59.286Z,2.10
2022-08-12T19:28:30.150Z,1.95
2022-08-12T19:31:55.438Z,1.58
2022-08-12T19:34:55.805Z,1.83
2022-08-12T19:37:20.387Z,1.98
2022-08-12T19:40:08.100Z,2.10
2022-08-12T19:42:42.009Z,1.83
2022-08-12T19:45:12.241Z,1.95
2022-08-12T19:47:40.535Z,2.17
2022-08-12T19:50:11.047Z,2.00
2022-08-12T19:52:39.017Z,1.90
2022-08-12T19:55:17.917Z,2.08
2022-08-12T19:58:02.880Z,2.40
2022-08-12T20:00:32.186Z,1.92
2022-08-12T20:06:05.995Z,2.10
2022-08-12T20:08:29.388Z,2.10
2022-08-12T20:12:12.792Z,1.80
2022-08-12T20:13:49.298Z,2.40
2022-08-12T20:16:50.963Z,1.83
2022-08-12T20:19:14.395Z,2.40
2022-08-12T20:21:43.390Z,2.10
2022-08-12T20:24:11.745Z,2.17
2022-08-12T20:26:41.651Z,2.80
2022-08-12T20:29:09.026Z,2.30
2022-08-12T20:31:39.600Z,2.08
2022-08-12T20:34:06.744Z,2.40
2022-08-12T20:36:40.843Z,2.78
2022-08-12T20:39:34.340Z,2.10
2022-08-12T20:42:04.433Z,2.20
2022-08-12T20:44:36.378Z,2.50
2022-08-12T20:47:11.798Z,2.40
2022-08-12T20:49:45.157Z,2.63
2022-08-12T20:52:15.154Z,2.10
2022-08-12T20:54:50.241Z,2.20
2022-08-12T20:57:19.432Z,1.98
2022-08-12T20:59:47.862Z,2.20
2022-08-12T21:02:18.807Z,2.53
2022-08-12T21:05:16.442Z,2.70
2022-08-12T21:07:52.215Z,2.60
2022-08-12T21:10:20.759Z,2.40
2022-08-12T21:12:48.218Z,2.30
2022-08-12T21:15:23.614Z,2.20
2022-08-12T21:18:15.315Z,2.38
2022-08-12T21:20:52.139Z,2.30
2022-08-12T21:23:21.271Z,2.30
2022-08-12T21:25:49.046Z,2.50
2022-08-12T21:28:20.360Z,2.63
2022-08-12T21:31:11.088Z,2.30
2022-08-12T21:33:58.534Z,2.25
2022-08-12T21:36:34.373Z,3.22
2022-08-12T21:39:20.336Z,2.42
2022-08-12T21:41:56.493Z,2.22
2022-08-12T21:45:45.776Z,2.15
2022-08-12T21:47:21.053Z,2.53
2022-08-12T21:50:03.845Z,2.17
2022-08-12T21:52:36.165Z,2.67
2022-08-12T21:55:17.200Z,2.65
2022-08-12T21:57:53.772Z,2.78
2022-08-12T22:00:32.646Z,2.42
2022-08-12T22:04:04.305Z,2.20
2022-08-12T22:06:26.464Z,2.47
2022-08-12T22:09:02.077Z,2.75
2022-08-12T22:11:42.281Z,2.40
2022-08-12T22:14:21.395Z,2.38
2022-08-12T22:16:50.311Z,2.65
2022-08-12T22:19:19.202Z,3.17
2022-08-12T22:21:53.443Z,2.20
2022-08-12T22:24:27.196Z,2.67
2022-08-12T22:26:58.711Z,2.38
2022-08-12T22:29:43.839Z,2.20
2022-08-12T22:32:12.056Z,2.53
2022-08-12T22:34:39.039Z,2.30
2022-08-12T22:37:05.895Z,2.53
2022-08-12T22:39:38.240Z,2.97
2022-08-12T22:42:30.740Z,2.35
2022-08-12T22:45:23.218Z,2.35
2022-08-12T22:47:54.692Z,2.83
2022-08-12T22:50:28.526Z,2.42
2022-08-12T22:53:19.453Z,2.58
2022-08-12T22:56:05.554Z,2.55
2022-08-12T22:58:33.506Z,2.72
2022-08-12T23:01:02.438Z,2.42
2022-08-12T23:03:48.422Z,2.25
2022-08-12T23:06:23.069Z,2.00
2022-08-12T23:08:50.834Z,2.28
2022-08-12T23:11:23.617Z,2.28
2022-08-12T23:13:55.123Z,2.50
2022-08-12T23:16:31.158Z,2.60
2022-08-12T23:19:09.556Z,2.67
2022-08-12T23:22:03.454Z,2.60
2022-08-12T23:24:29.093Z,2.40
2022-08-12T23:27:14.645Z,2.38
2022-08-12T23:29:43.934Z,2.83
2022-08-12T23:32:53.971Z,2.85
2022-08-12T23:35:18.741Z,2.70
2022-08-12T23:37:53.862Z,2.58
2022-08-12T23:40:22.139Z,2.40
2022-08-12T23:42:50.732Z,2.05
2022-08-12T23:45:20.492Z,2.30
2022-08-12T23:47:58.445Z,2.40
2022-08-12T23:50:34.073Z,1.70
2022-08-12T23:53:22.336Z,2.33
2022-08-12T23:55:49.953Z,2.70
2022-08-12T23:58:22.914Z,2.10
